sensor_id;sensor_type;location;lat;lon;timestamp;temperature;humidity
17178;DHT22;8704;52.006;4.374;2023-05-07T00:01:34;14.70;1.00
17178;DHT22;8704;52.006;4.374;2023-05-07T00:04:02;14.80;1.00
17178;DHT22;8704;52.006;4.374;2023-05-07T00:06:32;14.60;1.00
17178;DHT22;8704;52.006;4.374;2023-05-07T00:09:02;14.50;1.00
17178;DHT22;8704;52.006;4.374;2023-05-07T00:11:31;14.50;1.00
17178;DHT22;8704;52.006;4.374;2023-05-07T00:14:00;14.50;1.00
17178;DHT22;8704;52.006;4.374;2023-05-07T00:16:28;14.40;1.00
17178;DHT22;8704;52.006;4.374;2023-05-07T00:18:56;14.40;1.00
17178;DHT22;8704;52.006;4.374;2023-05-07T00:21:24;14.60;1.00
17178;DHT22;8704;52.006;4.374;2023-05-07T00:23:53;14.50;1.00
17178;DHT22;8704;52.006;4.374;2023-05-07T00:26:23;14.40;1.00
17178;DHT22;8704;52.006;4.374;2023-05-07T00:28:51;14.30;1.00
17178;DHT22;8704;52.006;4.374;2023-05-07T00:31:19;15.00;1.00
17178;DHT22;8704;52.006;4.374;2023-05-07T00:33:47;14.30;1.00
17178;DHT22;8704;52.006;4.374;2023-05-07T00:36:15;14.20;1.00
17178;DHT22;8704;52.006;4.374;2023-05-07T00:38:43;14.40;1.00
17178;DHT22;8704;52.006;4.374;2023-05-07T00:41:11;14.40;1.00
17178;DHT22;8704;52.006;4.374;2023-05-07T00:43:40;14.20;1.00
17178;DHT22;8704;52.006;4.374;2023-05-07T00:46:09;14.30;1.00
17178;DHT22;8704;52.006;4.374;2023-05-07T00:48:38;14.70;1.00
17178;DHT22;8704;52.006;4.374;2023-05-07T00:51:06;14.30;1.00
17178;DHT22;8704;52.006;4.374;2023-05-07T00:53:34;13.90;1.00
17178;DHT22;8704;52.006;4.374;2023-05-07T00:56:03;14.30;1.00
17178;DHT22;8704;52.006;4.374;2023-05-07T00:58:33;14.30;1.00
17178;DHT22;8704;52.006;4.374;2023-05-07T01:01:03;14.30;1.00
17178;DHT22;8704;52.006;4.374;2023-05-07T01:03:31;14.20;1.00
17178;DHT22;8704;52.006;4.374;2023-05-07T01:05:59;14.50;1.00
17178;DHT22;8704;52.006;4.374;2023-05-07T01:08:30;14.10;1.00
17178;DHT22;8704;52.006;4.374;2023-05-07T01:10:59;14.40;1.00
17178;DHT22;8704;52.006;4.374;2023-05-07T01:13:28;14.40;1.00
17178;DHT22;8704;52.006;4.374;2023-05-07T01:15:56;14.10;1.00
17178;DHT22;8704;52.006;4.374;2023-05-07T01:18:26;14.00;1.00
17178;DHT22;8704;52.006;4.374;2023-05-07T01:20:56;14.10;1.00
17178;DHT22;8704;52.006;4.374;2023-05-07T01:23:27;14.00;1.00
17178;DHT22;8704;52.006;4.374;2023-05-07T01:25:56;14.00;1.00
17178;DHT22;8704;52.006;4.374;2023-05-07T01:28:24;14.20;1.00
17178;DHT22;8704;52.006;4.374;2023-05-07T01:30:55;14.20;1.00
17178;DHT22;8704;52.006;4.374;2023-05-07T01:33:23;14.10;1.00
17178;DHT22;8704;52.006;4.374;2023-05-07T01:35:53;14.00;1.00
17178;DHT22;8704;52.006;4.374;2023-05-07T01:38:21;14.10;1.00
17178;DHT22;8704;52.006;4.374;2023-05-07T01:40:51;13.90;1.00
17178;DHT22;8704;52.006;4.374;2023-05-07T01:43:20;14.20;1.00
17178;DHT22;8704;52.006;4.374;2023-05-07T01:45:48;13.90;1.00
17178;DHT22;8704;52.006;4.374;2023-05-07T01:48:17;13.80;1.00
17178;DHT22;8704;52.006;4.374;2023-05-07T01:50:46;13.90;1.00
17178;DHT22;8704;52.006;4.374;2023-05-07T01:53:15;14.00;1.00
17178;DHT22;8704;52.006;4.374;2023-05-07T01:55:43;14.00;1.00
17178;DHT22;8704;52.006;4.374;2023-05-07T01:58:13;14.00;1.00
17178;DHT22;8704;52.006;4.374;2023-05-07T02:00:41;13.90;1.00
17178;DHT22;8704;52.006;4.374;2023-05-07T02:03:09;13.90;1.00
17178;DHT22;8704;52.006;4.374;2023-05-07T02:05:37;13.90;1.00
17178;DHT22;8704;52.006;4.374;2023-05-07T02:08:05;14.00;1.00
17178;DHT22;8704;52.006;4.374;2023-05-07T02:10:33;14.40;1.00
17178;DHT22;8704;52.006;4.374;2023-05-07T02:13:02;14.30;1.00
17178;DHT22;8704;52.006;4.374;2023-05-07T02:15:32;14.00;1.00
17178;DHT22;8704;52.006;4.374;2023-05-07T02:18:02;13.70;1.00
17178;DHT22;8704;52.006;4.374;2023-05-07T02:20:30;13.80;1.00
17178;DHT22;8704;52.006;4.374;2023-05-07T02:22:58;13.80;1.00
17178;DHT22;8704;52.006;4.374;2023-05-07T02:25:26;14.00;1.00
17178;DHT22;8704;52.006;4.374;2023-05-07T02:27:55;14.10;1.00
17178;DHT22;8704;52.006;4.374;2023-05-07T02:30:24;14.10;1.00
17178;DHT22;8704;52.006;4.374;2023-05-07T02:32:54;14.00;1.00
17178;DHT22;8704;52.006;4.374;2023-05-07T02:35:22;13.80;1.00
17178;DHT22;8704;52.006;4.374;2023-05-07T02:37:51;14.00;1.00
17178;DHT22;8704;52.006;4.374;2023-05-07T02:40:19;14.00;1.00
17178;DHT22;8704;52.006;4.374;2023-05-07T02:42:47;14.10;1.00
17178;DHT22;8704;52.006;4.374;2023-05-07T02:45:16;14.40;1.00
17178;DHT22;8704;52.006;4.374;2023-05-07T02:47:44;14.00;1.00
17178;DHT22;8704;52.006;4.374;2023-05-07T02:50:13;14.50;1.00
17178;DHT22;8704;52.006;4.374;2023-05-07T02:52:41;14.00;1.00
17178;DHT22;8704;52.006;4.374;2023-05-07T02:55:09;14.10;1.00
17178;DHT22;8704;52.006;4.374;2023-05-07T02:57:38;13.90;1.00
17178;DHT22;8704;52.006;4.374;2023-05-07T03:00:13;14.30;1.00
17178;DHT22;8704;52.006;4.374;2023-05-07T03:02:42;13.90;1.00
17178;DHT22;8704;52.006;4.374;2023-05-07T03:05:11;14.10;1.00
17178;DHT22;8704;52.006;4.374;2023-05-07T03:07:40;13.90;1.00
17178;DHT22;8704;52.006;4.374;2023-05-07T03:10:11;14.00;1.00
17178;DHT22;8704;52.006;4.374;2023-05-07T03:12:39;14.00;1.00
17178;DHT22;8704;52.006;4.374;2023-05-07T03:15:09;14.00;1.00
17178;DHT22;8704;52.006;4.374;2023-05-07T03:17:38;14.10;1.00
17178;DHT22;8704;52.006;4.374;2023-05-07T03:20:07;14.40;1.00
17178;DHT22;8704;52.006;4.374;2023-05-07T03:22:37;14.00;1.00
17178;DHT22;8704;52.006;4.374;2023-05-07T03:25:08;14.00;1.00
17178;DHT22;8704;52.006;4.374;2023-05-07T03:27:36;13.90;1.00
17178;DHT22;8704;52.006;4.374;2023-05-07T03:30:05;14.20;1.00
17178;DHT22;8704;52.006;4.374;2023-05-07T03:32:34;14.20;1.00
17178;DHT22;8704;52.006;4.374;2023-05-07T03:35:03;14.00;1.00
17178;DHT22;8704;52.006;4.374;2023-05-07T03:37:31;14.00;1.00
17178;DHT22;8704;52.006;4.374;2023-05-07T03:39:59;14.10;1.00
17178;DHT22;8704;52.006;4.374;2023-05-07T03:42:28;14.00;1.00
17178;DHT22;8704;52.006;4.374;2023-05-07T03:44:56;14.00;1.00
17178;DHT22;8704;52.006;4.374;2023-05-07T03:47:24;14.20;1.00
17178;DHT22;8704;52.006;4.374;2023-05-07T03:49:52;14.50;1.00
17178;DHT22;8704;52.006;4.374;2023-05-07T03:52:21;14.30;1.00
17178;DHT22;8704;52.006;4.374;2023-05-07T03:54:52;14.00;1.00
17178;DHT22;8704;52.006;4.374;2023-05-07T03:57:20;14.20;1.00
17178;DHT22;8704;52.006;4.374;2023-05-07T03:59:50;14.00;1.00
17178;DHT22;8704;52.006;4.374;2023-05-07T04:02:18;14.20;1.00
17178;DHT22;8704;52.006;4.374;2023-05-07T04:04:48;14.00;1.00
17178;DHT22;8704;52.006;4.374;2023-05-07T04:07:17;14.40;1.00
17178;DHT22;8704;52.006;4.374;2023-05-07T04:09:45;14.10;1.00
17178;DHT22;8704;52.006;4.374;2023-05-07T04:12:13;14.10;1.00
17178;DHT22;8704;52.006;4.374;2023-05-07T04:14:41;14.20;1.00
17178;DHT22;8704;52.006;4.374;2023-05-07T04:17:10;14.00;1.00
17178;DHT22;8704;52.006;4.374;2023-05-07T04:19:38;14.40;1.00
17178;DHT22;8704;52.006;4.374;2023-05-07T04:22:06;14.20;1.00
17178;DHT22;8704;52.006;4.374;2023-05-07T04:24:34;13.80;1.00
17178;DHT22;8704;52.006;4.374;2023-05-07T04:27:02;14.00;1.00
17178;DHT22;8704;52.006;4.374;2023-05-07T04:29:31;14.40;1.00
17178;DHT22;8704;52.006;4.374;2023-05-07T04:31:59;14.10;1.00
17178;DHT22;8704;52.006;4.374;2023-05-07T04:34:28;14.10;1.00
17178;DHT22;8704;52.006;4.374;2023-05-07T04:36:58;14.30;1.00
17178;DHT22;8704;52.006;4.374;2023-05-07T04:39:27;14.50;1.00
17178;DHT22;8704;52.006;4.374;2023-05-07T04:41:55;14.10;1.00
17178;DHT22;8704;52.006;4.374;2023-05-07T04:44:23;14.10;1.00
17178;DHT22;8704;52.006;4.374;2023-05-07T04:46:51;14.10;1.00
17178;DHT22;8704;52.006;4.374;2023-05-07T04:49:19;14.10;1.00
17178;DHT22;8704;52.006;4.374;2023-05-07T04:51:49;14.50;1.00
17178;DHT22;8704;52.006;4.374;2023-05-07T04:54:17;14.00;1.00
17178;DHT22;8704;52.006;4.374;2023-05-07T04:56:45;14.20;1.00
17178;DHT22;8704;52.006;4.374;2023-05-07T04:59:13;14.10;1.00
17178;DHT22;8704;52.006;4.374;2023-05-07T05:01:41;14.20;1.00
17178;DHT22;8704;52.006;4.374;2023-05-07T05:04:09;14.30;1.00
17178;DHT22;8704;52.006;4.374;2023-05-07T05:06:38;14.30;1.00
17178;DHT22;8704;52.006;4.374;2023-05-07T05:09:07;14.20;1.00
17178;DHT22;8704;52.006;4.374;2023-05-07T05:11:35;14.40;1.00
17178;DHT22;8704;52.006;4.374;2023-05-07T05:14:03;14.40;1.00
17178;DHT22;8704;52.006;4.374;2023-05-07T05:16:32;14.40;1.00
17178;DHT22;8704;52.006;4.374;2023-05-07T05:19:01;14.30;1.00
17178;DHT22;8704;52.006;4.374;2023-05-07T05:21:29;14.40;1.00
17178;DHT22;8704;52.006;4.374;2023-05-07T05:23:57;14.40;1.00
17178;DHT22;8704;52.006;4.374;2023-05-07T05:26:27;14.60;1.00
17178;DHT22;8704;52.006;4.374;2023-05-07T05:28:55;14.40;1.00
17178;DHT22;8704;52.006;4.374;2023-05-07T05:31:23;14.40;1.00
17178;DHT22;8704;52.006;4.374;2023-05-07T05:33:51;14.70;1.00
17178;DHT22;8704;52.006;4.374;2023-05-07T05:36:19;14.80;1.00
17178;DHT22;8704;52.006;4.374;2023-05-07T05:38:47;14.40;1.00
17178;DHT22;8704;52.006;4.374;2023-05-07T05:41:14;15.20;1.00
17178;DHT22;8704;52.006;4.374;2023-05-07T05:43:44;14.50;1.00
17178;DHT22;8704;52.006;4.374;2023-05-07T05:46:12;14.90;1.00
17178;DHT22;8704;52.006;4.374;2023-05-07T05:48:40;15.10;1.00
17178;DHT22;8704;52.006;4.374;2023-05-07T05:51:08;15.00;1.00
17178;DHT22;8704;52.006;4.374;2023-05-07T05:53:36;14.80;1.00
17178;DHT22;8704;52.006;4.374;2023-05-07T05:56:04;14.80;1.00
17178;DHT22;8704;52.006;4.374;2023-05-07T05:58:32;14.80;1.00
17178;DHT22;8704;52.006;4.374;2023-05-07T06:01:02;14.90;1.00
17178;DHT22;8704;52.006;4.374;2023-05-07T06:03:30;14.80;1.00
17178;DHT22;8704;52.006;4.374;2023-05-07T06:05:59;14.90;1.00
17178;DHT22;8704;52.006;4.374;2023-05-07T06:08:29;15.20;1.00
17178;DHT22;8704;52.006;4.374;2023-05-07T06:10:57;15.50;1.00
17178;DHT22;8704;52.006;4.374;2023-05-07T06:13:26;15.20;1.00
17178;DHT22;8704;52.006;4.374;2023-05-07T06:15:54;15.70;1.00
17178;DHT22;8704;52.006;4.374;2023-05-07T06:18:23;15.50;1.00
17178;DHT22;8704;52.006;4.374;2023-05-07T06:20:51;15.20;1.00
17178;DHT22;8704;52.006;4.374;2023-05-07T06:23:19;15.30;1.00
17178;DHT22;8704;52.006;4.374;2023-05-07T06:25:49;15.40;1.00
17178;DHT22;8704;52.006;4.374;2023-05-07T06:28:17;15.10;1.00
17178;DHT22;8704;52.006;4.374;2023-05-07T06:30:45;15.20;1.00
17178;DHT22;8704;52.006;4.374;2023-05-07T06:33:13;15.50;1.00
17178;DHT22;8704;52.006;4.374;2023-05-07T06:35:43;15.30;1.00
17178;DHT22;8704;52.006;4.374;2023-05-07T06:38:11;15.50;1.00
17178;DHT22;8704;52.006;4.374;2023-05-07T06:40:39;15.40;1.00
17178;DHT22;8704;52.006;4.374;2023-05-07T06:43:07;15.30;1.00
17178;DHT22;8704;52.006;4.374;2023-05-07T06:45:35;15.90;1.00
17178;DHT22;8704;52.006;4.374;2023-05-07T06:48:04;15.80;1.00
17178;DHT22;8704;52.006;4.374;2023-05-07T06:50:32;15.20;1.00
17178;DHT22;8704;52.006;4.374;2023-05-07T06:53:01;15.40;1.00
17178;DHT22;8704;52.006;4.374;2023-05-07T06:55:30;16.00;1.00
17178;DHT22;8704;52.006;4.374;2023-05-07T06:57:58;16.20;1.00
17178;DHT22;8704;52.006;4.374;2023-05-07T07:00:27;15.80;1.00
17178;DHT22;8704;52.006;4.374;2023-05-07T07:02:56;15.50;1.00
17178;DHT22;8704;52.006;4.374;2023-05-07T07:05:24;15.90;1.00
17178;DHT22;8704;52.006;4.374;2023-05-07T07:07:52;16.20;1.00
17178;DHT22;8704;52.006;4.374;2023-05-07T07:10:21;15.70;1.00
17178;DHT22;8704;52.006;4.374;2023-05-07T07:12:50;16.20;1.00
17178;DHT22;8704;52.006;4.374;2023-05-07T07:15:19;16.20;1.00
17178;DHT22;8704;52.006;4.374;2023-05-07T07:17:48;16.30;1.00
17178;DHT22;8704;52.006;4.374;2023-05-07T07:20:16;16.10;1.00
17178;DHT22;8704;52.006;4.374;2023-05-07T07:22:44;16.20;1.00
17178;DHT22;8704;52.006;4.374;2023-05-07T07:25:12;16.20;1.00
17178;DHT22;8704;52.006;4.374;2023-05-07T07:27:42;16.00;1.00
17178;DHT22;8704;52.006;4.374;2023-05-07T07:30:10;16.10;1.00
17178;DHT22;8704;52.006;4.374;2023-05-07T07:32:38;16.10;1.00
17178;DHT22;8704;52.006;4.374;2023-05-07T07:35:07;16.40;1.00
17178;DHT22;8704;52.006;4.374;2023-05-07T07:37:35;16.20;1.00
17178;DHT22;8704;52.006;4.374;2023-05-07T07:40:04;16.10;1.00
17178;DHT22;8704;52.006;4.374;2023-05-07T07:42:32;16.20;1.00
17178;DHT22;8704;52.006;4.374;2023-05-07T07:45:01;16.40;1.00
17178;DHT22;8704;52.006;4.374;2023-05-07T07:47:29;16.20;1.00
17178;DHT22;8704;52.006;4.374;2023-05-07T07:49:57;16.30;1.00
17178;DHT22;8704;52.006;4.374;2023-05-07T07:52:25;16.20;1.00
17178;DHT22;8704;52.006;4.374;2023-05-07T07:54:53;16.60;1.00
17178;DHT22;8704;52.006;4.374;2023-05-07T07:57:21;17.00;1.00
17178;DHT22;8704;52.006;4.374;2023-05-07T07:59:49;16.50;1.00
17178;DHT22;8704;52.006;4.374;2023-05-07T08:02:19;16.80;1.00
17178;DHT22;8704;52.006;4.374;2023-05-07T08:04:47;16.60;1.00
17178;DHT22;8704;52.006;4.374;2023-05-07T08:07:15;17.00;1.00
17178;DHT22;8704;52.006;4.374;2023-05-07T08:09:45;17.00;1.00
17178;DHT22;8704;52.006;4.374;2023-05-07T08:12:13;16.80;1.00
17178;DHT22;8704;52.006;4.374;2023-05-07T08:14:41;17.20;1.00
17178;DHT22;8704;52.006;4.374;2023-05-07T08:17:09;16.90;1.00
17178;DHT22;8704;52.006;4.374;2023-05-07T08:19:38;17.70;1.00
17178;DHT22;8704;52.006;4.374;2023-05-07T08:22:06;17.20;1.00
17178;DHT22;8704;52.006;4.374;2023-05-07T08:24:34;16.90;1.00
17178;DHT22;8704;52.006;4.374;2023-05-07T08:27:02;17.50;1.00
17178;DHT22;8704;52.006;4.374;2023-05-07T08:29:31;17.60;1.00
17178;DHT22;8704;52.006;4.374;2023-05-07T08:31:59;17.50;1.00
17178;DHT22;8704;52.006;4.374;2023-05-07T08:34:27;17.80;1.00
17178;DHT22;8704;52.006;4.374;2023-05-07T08:36:56;18.00;1.00
17178;DHT22;8704;52.006;4.374;2023-05-07T08:39:24;17.90;1.00
17178;DHT22;8704;52.006;4.374;2023-05-07T08:41:55;18.20;1.00
17178;DHT22;8704;52.006;4.374;2023-05-07T08:44:26;18.00;99.90
17178;DHT22;8704;52.006;4.374;2023-05-07T08:46:56;18.00;99.90
17178;DHT22;8704;52.006;4.374;2023-05-07T08:49:24;17.90;99.90
17178;DHT22;8704;52.006;4.374;2023-05-07T08:51:52;17.80;99.90
17178;DHT22;8704;52.006;4.374;2023-05-07T08:54:22;18.60;99.90
17178;DHT22;8704;52.006;4.374;2023-05-07T08:56:50;18.30;99.90
17178;DHT22;8704;52.006;4.374;2023-05-07T08:59:18;18.50;99.90
17178;DHT22;8704;52.006;4.374;2023-05-07T09:01:46;18.90;99.90
17178;DHT22;8704;52.006;4.374;2023-05-07T09:04:14;18.90;99.90
17178;DHT22;8704;52.006;4.374;2023-05-07T09:06:42;18.90;99.90
17178;DHT22;8704;52.006;4.374;2023-05-07T09:09:14;18.80;99.90
17178;DHT22;8704;52.006;4.374;2023-05-07T09:11:46;18.90;99.90
17178;DHT22;8704;52.006;4.374;2023-05-07T09:14:14;19.10;99.90
17178;DHT22;8704;52.006;4.374;2023-05-07T09:16:43;19.30;99.90
17178;DHT22;8704;52.006;4.374;2023-05-07T09:19:11;18.90;99.90
17178;DHT22;8704;52.006;4.374;2023-05-07T09:21:39;19.00;99.90
17178;DHT22;8704;52.006;4.374;2023-05-07T09:24:07;19.40;99.90
17178;DHT22;8704;52.006;4.374;2023-05-07T09:26:35;19.50;99.90
17178;DHT22;8704;52.006;4.374;2023-05-07T09:29:04;19.50;99.90
17178;DHT22;8704;52.006;4.374;2023-05-07T09:31:35;19.50;99.90
17178;DHT22;8704;52.006;4.374;2023-05-07T09:34:04;19.60;99.90
17178;DHT22;8704;52.006;4.374;2023-05-07T09:36:32;20.00;99.90
17178;DHT22;8704;52.006;4.374;2023-05-07T09:39:00;19.70;99.90
17178;DHT22;8704;52.006;4.374;2023-05-07T09:41:30;19.70;99.90
17178;DHT22;8704;52.006;4.374;2023-05-07T09:43:58;20.20;99.90
17178;DHT22;8704;52.006;4.374;2023-05-07T09:46:30;20.10;99.90
17178;DHT22;8704;52.006;4.374;2023-05-07T09:49:01;20.20;99.90
17178;DHT22;8704;52.006;4.374;2023-05-07T09:51:31;20.20;99.90
17178;DHT22;8704;52.006;4.374;2023-05-07T09:54:02;20.70;99.90
17178;DHT22;8704;52.006;4.374;2023-05-07T09:56:30;20.30;99.90
17178;DHT22;8704;52.006;4.374;2023-05-07T09:59:00;20.60;99.90
17178;DHT22;8704;52.006;4.374;2023-05-07T10:01:31;20.10;99.90
17178;DHT22;8704;52.006;4.374;2023-05-07T10:04:01;20.50;99.90
17178;DHT22;8704;52.006;4.374;2023-05-07T10:06:30;20.70;99.90
17178;DHT22;8704;52.006;4.374;2023-05-07T10:08:59;20.90;99.90
17178;DHT22;8704;52.006;4.374;2023-05-07T10:11:28;20.90;99.90
17178;DHT22;8704;52.006;4.374;2023-05-07T10:13:56;20.50;99.90
17178;DHT22;8704;52.006;4.374;2023-05-07T10:16:25;21.40;99.90
17178;DHT22;8704;52.006;4.374;2023-05-07T10:18:56;21.20;99.90
17178;DHT22;8704;52.006;4.374;2023-05-07T10:21:27;21.30;99.90
17178;DHT22;8704;52.006;4.374;2023-05-07T10:23:58;21.30;91.30
17178;DHT22;8704;52.006;4.374;2023-05-07T10:26:29;20.90;99.90
17178;DHT22;8704;52.006;4.374;2023-05-07T10:29:01;21.40;99.90
17178;DHT22;8704;52.006;4.374;2023-05-07T10:31:35;21.30;68.00
17178;DHT22;8704;52.006;4.374;2023-05-07T10:34:11;20.80;43.90
17178;DHT22;8704;52.006;4.374;2023-05-07T10:36:39;21.10;90.50
17178;DHT22;8704;52.006;4.374;2023-05-07T10:39:09;21.00;75.80
17178;DHT22;8704;52.006;4.374;2023-05-07T10:41:38;21.30;80.00
17178;DHT22;8704;52.006;4.374;2023-05-07T10:44:06;20.90;99.90
17178;DHT22;8704;52.006;4.374;2023-05-07T10:46:34;21.40;99.90
17178;DHT22;8704;52.006;4.374;2023-05-07T10:49:10;20.90;99.90
17178;DHT22;8704;52.006;4.374;2023-05-07T10:51:42;21.10;18.30
17178;DHT22;8704;52.006;4.374;2023-05-07T10:54:19;21.00;92.80
17178;DHT22;8704;52.006;4.374;2023-05-07T10:56:47;21.50;65.80
17178;DHT22;8704;52.006;4.374;2023-05-07T10:59:34;21.50;92.50
17178;DHT22;8704;52.006;4.374;2023-05-07T11:02:07;21.20;99.90
17178;DHT22;8704;52.006;4.374;2023-05-07T11:04:39;21.30;74.90
17178;DHT22;8704;52.006;4.374;2023-05-07T11:07:29;21.60;75.60
17178;DHT22;8704;52.006;4.374;2023-05-07T11:10:05;21.40;28.90
17178;DHT22;8704;52.006;4.374;2023-05-07T11:12:53;21.40;34.20
17178;DHT22;8704;52.006;4.374;2023-05-07T11:15:42;21.30;8.20
17178;DHT22;8704;52.006;4.374;2023-05-07T11:18:15;21.30;9.50
17178;DHT22;8704;52.006;4.374;2023-05-07T11:20:50;21.50;53.90
17178;DHT22;8704;52.006;4.374;2023-05-07T11:23:56;21.90;42.20
17178;DHT22;8704;52.006;4.374;2023-05-07T11:26:26;21.60;28.20
17178;DHT22;8704;52.006;4.374;2023-05-07T11:28:54;21.50;1.00
17178;DHT22;8704;52.006;4.374;2023-05-07T11:31:26;21.40;1.00
17178;DHT22;8704;52.006;4.374;2023-05-07T11:33:55;21.70;1.00
17178;DHT22;8704;52.006;4.374;2023-05-07T11:36:30;21.90;22.40
17178;DHT22;8704;52.006;4.374;2023-05-07T11:38:59;21.80;20.50
17178;DHT22;8704;52.006;4.374;2023-05-07T11:41:33;21.60;1.00
17178;DHT22;8704;52.006;4.374;2023-05-07T11:44:02;21.80;1.00
17178;DHT22;8704;52.006;4.374;2023-05-07T11:46:30;21.60;1.00
17178;DHT22;8704;52.006;4.374;2023-05-07T11:48:58;21.60;1.00
17178;DHT22;8704;52.006;4.374;2023-05-07T11:51:30;21.30;1.00
17178;DHT22;8704;52.006;4.374;2023-05-07T11:53:58;21.50;1.00
17178;DHT22;8704;52.006;4.374;2023-05-07T11:56:26;21.30;1.00
17178;DHT22;8704;52.006;4.374;2023-05-07T11:58:54;21.10;1.00
17178;DHT22;8704;52.006;4.374;2023-05-07T12:01:22;21.00;1.00
17178;DHT22;8704;52.006;4.374;2023-05-07T12:03:50;20.70;8.60
17178;DHT22;8704;52.006;4.374;2023-05-07T12:06:18;20.70;1.00
17178;DHT22;8704;52.006;4.374;2023-05-07T12:08:48;20.30;5.80
17178;DHT22;8704;52.006;4.374;2023-05-07T12:11:21;20.30;30.20
17178;DHT22;8704;52.006;4.374;2023-05-07T12:13:49;20.70;25.50
17178;DHT22;8704;52.006;4.374;2023-05-07T12:16:18;20.60;35.20
17178;DHT22;8704;52.006;4.374;2023-05-07T12:18:47;20.20;52.00
17178;DHT22;8704;52.006;4.374;2023-05-07T12:21:15;20.00;36.90
17178;DHT22;8704;52.006;4.374;2023-05-07T12:23:44;20.10;22.20
17178;DHT22;8704;52.006;4.374;2023-05-07T12:26:14;20.20;95.70
17178;DHT22;8704;52.006;4.374;2023-05-07T12:28:42;20.60;99.90
17178;DHT22;8704;52.006;4.374;2023-05-07T12:31:10;19.90;99.90
17178;DHT22;8704;52.006;4.374;2023-05-07T12:33:38;19.80;99.90
17178;DHT22;8704;52.006;4.374;2023-05-07T12:36:08;19.90;99.90
17178;DHT22;8704;52.006;4.374;2023-05-07T12:38:39;20.30;99.90
17178;DHT22;8704;52.006;4.374;2023-05-07T12:41:09;19.90;99.90
17178;DHT22;8704;52.006;4.374;2023-05-07T12:43:38;20.20;99.90
17178;DHT22;8704;52.006;4.374;2023-05-07T12:46:07;19.70;99.90
17178;DHT22;8704;52.006;4.374;2023-05-07T12:48:36;19.70;99.90
17178;DHT22;8704;52.006;4.374;2023-05-07T12:51:05;19.80;99.90
17178;DHT22;8704;52.006;4.374;2023-05-07T12:53:40;19.70;99.90
17178;DHT22;8704;52.006;4.374;2023-05-07T12:56:08;20.10;99.90
17178;DHT22;8704;52.006;4.374;2023-05-07T12:58:36;20.30;99.90
17178;DHT22;8704;52.006;4.374;2023-05-07T13:01:07;19.80;99.90
17178;DHT22;8704;52.006;4.374;2023-05-07T13:03:37;20.00;99.90
17178;DHT22;8704;52.006;4.374;2023-05-07T13:06:07;20.20;99.90
17178;DHT22;8704;52.006;4.374;2023-05-07T13:08:37;20.40;99.90
17178;DHT22;8704;52.006;4.374;2023-05-07T13:11:08;20.00;99.90
17178;DHT22;8704;52.006;4.374;2023-05-07T13:13:37;20.00;99.90
17178;DHT22;8704;52.006;4.374;2023-05-07T13:16:09;19.70;99.90
17178;DHT22;8704;52.006;4.374;2023-05-07T13:18:39;20.20;99.90
17178;DHT22;8704;52.006;4.374;2023-05-07T13:21:07;20.60;99.90
17178;DHT22;8704;52.006;4.374;2023-05-07T13:23:36;20.20;99.90
17178;DHT22;8704;52.006;4.374;2023-05-07T13:26:05;20.30;99.90
17178;DHT22;8704;52.006;4.374;2023-05-07T13:28:51;20.20;99.90
17178;DHT22;8704;52.006;4.374;2023-05-07T13:31:21;20.40;99.90
17178;DHT22;8704;52.006;4.374;2023-05-07T13:33:49;20.30;99.90
17178;DHT22;8704;52.006;4.374;2023-05-07T13:36:17;20.30;99.90
17178;DHT22;8704;52.006;4.374;2023-05-07T13:38:45;19.90;99.90
17178;DHT22;8704;52.006;4.374;2023-05-07T13:41:13;20.40;99.90
17178;DHT22;8704;52.006;4.374;2023-05-07T13:43:41;19.70;99.90
17178;DHT22;8704;52.006;4.374;2023-05-07T13:46:09;19.80;99.90
17178;DHT22;8704;52.006;4.374;2023-05-07T13:48:38;20.00;99.90
17178;DHT22;8704;52.006;4.374;2023-05-07T13:51:06;19.80;99.90
17178;DHT22;8704;52.006;4.374;2023-05-07T13:53:34;20.30;99.90
17178;DHT22;8704;52.006;4.374;2023-05-07T13:56:02;19.80;99.90
17178;DHT22;8704;52.006;4.374;2023-05-07T13:58:31;19.70;99.90
17178;DHT22;8704;52.006;4.374;2023-05-07T14:00:59;19.80;99.90
17178;DHT22;8704;52.006;4.374;2023-05-07T14:03:27;20.40;99.90
17178;DHT22;8704;52.006;4.374;2023-05-07T14:05:57;19.90;99.90
17178;DHT22;8704;52.006;4.374;2023-05-07T14:08:26;20.30;99.90
17178;DHT22;8704;52.006;4.374;2023-05-07T14:10:57;19.70;99.90
17178;DHT22;8704;52.006;4.374;2023-05-07T14:13:26;19.80;99.90
17178;DHT22;8704;52.006;4.374;2023-05-07T14:15:54;19.80;99.90
17178;DHT22;8704;52.006;4.374;2023-05-07T14:18:22;19.70;99.90
17178;DHT22;8704;52.006;4.374;2023-05-07T14:20:50;20.20;99.90
17178;DHT22;8704;52.006;4.374;2023-05-07T14:23:19;19.80;99.90
17178;DHT22;8704;52.006;4.374;2023-05-07T14:25:53;19.70;99.90
17178;DHT22;8704;52.006;4.374;2023-05-07T14:28:21;19.80;99.90
17178;DHT22;8704;52.006;4.374;2023-05-07T14:30:49;19.60;99.90
17178;DHT22;8704;52.006;4.374;2023-05-07T14:33:17;19.70;99.90
17178;DHT22;8704;52.006;4.374;2023-05-07T14:35:45;19.80;99.90
17178;DHT22;8704;52.006;4.374;2023-05-07T14:38:15;19.80;99.90
17178;DHT22;8704;52.006;4.374;2023-05-07T14:40:45;19.70;99.90
17178;DHT22;8704;52.006;4.374;2023-05-07T14:43:12;19.30;99.90
17178;DHT22;8704;52.006;4.374;2023-05-07T14:45:41;19.50;99.90
17178;DHT22;8704;52.006;4.374;2023-05-07T14:48:09;19.20;99.90
17178;DHT22;8704;52.006;4.374;2023-05-07T14:50:41;19.60;99.90
17178;DHT22;8704;52.006;4.374;2023-05-07T14:53:09;19.60;99.90
17178;DHT22;8704;52.006;4.374;2023-05-07T14:55:37;19.50;99.90
17178;DHT22;8704;52.006;4.374;2023-05-07T14:58:07;19.40;99.90
17178;DHT22;8704;52.006;4.374;2023-05-07T15:00:34;19.00;99.90
17178;DHT22;8704;52.006;4.374;2023-05-07T15:03:06;18.90;99.90
17178;DHT22;8704;52.006;4.374;2023-05-07T15:05:35;19.10;99.90
17178;DHT22;8704;52.006;4.374;2023-05-07T15:08:04;19.00;99.90
17178;DHT22;8704;52.006;4.374;2023-05-07T15:10:35;18.90;99.90
17178;DHT22;8704;52.006;4.374;2023-05-07T15:13:09;19.30;99.90
17178;DHT22;8704;52.006;4.374;2023-05-07T15:15:42;18.80;99.90
17178;DHT22;8704;52.006;4.374;2023-05-07T15:18:11;18.80;99.90
17178;DHT22;8704;52.006;4.374;2023-05-07T15:20:39;18.90;99.90
17178;DHT22;8704;52.006;4.374;2023-05-07T15:23:08;18.80;99.90
17178;DHT22;8704;52.006;4.374;2023-05-07T15:25:38;19.00;99.90
17178;DHT22;8704;52.006;4.374;2023-05-07T15:28:08;18.90;99.90
17178;DHT22;8704;52.006;4.374;2023-05-07T15:30:35;18.80;99.90
17178;DHT22;8704;52.006;4.374;2023-05-07T15:33:03;19.00;99.90
17178;DHT22;8704;52.006;4.374;2023-05-07T15:35:32;18.70;99.90
17178;DHT22;8704;52.006;4.374;2023-05-07T15:38:00;18.70;99.90
17178;DHT22;8704;52.006;4.374;2023-05-07T15:40:29;19.00;99.90
17178;DHT22;8704;52.006;4.374;2023-05-07T15:42:58;18.70;99.90
17178;DHT22;8704;52.006;4.374;2023-05-07T15:45:28;18.70;99.90
17178;DHT22;8704;52.006;4.374;2023-05-07T15:47:56;18.50;99.90
17178;DHT22;8704;52.006;4.374;2023-05-07T15:50:25;18.40;99.90
17178;DHT22;8704;52.006;4.374;2023-05-07T15:52:54;18.60;99.90
17178;DHT22;8704;52.006;4.374;2023-05-07T15:55:22;18.80;99.90
17178;DHT22;8704;52.006;4.374;2023-05-07T15:57:50;18.30;99.90
17178;DHT22;8704;52.006;4.374;2023-05-07T16:00:20;18.80;99.90
17178;DHT22;8704;52.006;4.374;2023-05-07T16:02:50;18.50;99.90
17178;DHT22;8704;52.006;4.374;2023-05-07T16:05:18;18.20;99.90
17178;DHT22;8704;52.006;4.374;2023-05-07T16:07:46;18.30;99.90